createdAt,value
2023-03-04T00:01:28.991Z,61.08
2023-03-04T00:03:55.783Z,61.29
2023-03-04T00:06:22.655Z,61.09
2023-03-04T00:08:49.476Z,61.37
2023-03-04T00:11:16.471Z,60.70
2023-03-04T00:13:43.194Z,61.14
2023-03-04T00:16:09.884Z,61.04
2023-03-04T00:18:36.806Z,61.07
2023-03-04T00:21:03.899Z,61.48
2023-03-04T00:23:30.657Z,61.42
2023-03-04T00:25:57.483Z,61.36
2023-03-04T00:28:24.617Z,61.41
2023-03-04T00:30:51.824Z,61.13
2023-03-04T00:33:18.685Z,61.21
2023-03-04T00:35:45.496Z,61.12
2023-03-04T00:38:12.338Z,61.01
2023-03-04T00:40:39.094Z,60.96
2023-03-04T00:43:05.877Z,61.08
2023-03-04T00:45:32.603Z,61.22
2023-03-04T00:47:59.414Z,61.19
2023-03-04T00:50:26.167Z,61.87
2023-03-04T00:52:52.901Z,62.08
2023-03-04T00:55:19.706Z,62.19
2023-03-04T00:57:46.445Z,62.47
2023-03-04T01:00:14.522Z,62.20
2023-03-04T01:02:41.403Z,62.25
2023-03-04T01:05:09.094Z,61.84
2023-03-04T01:07:38.193Z,62.00
2023-03-04T01:10:06.583Z,62.26
2023-03-04T01:12:33.318Z,61.86
2023-03-04T01:15:00.250Z,62.03
2023-03-04T01:17:27.079Z,61.98
2023-03-04T01:19:53.883Z,61.68
2023-03-04T01:22:23.709Z,61.99
2023-03-04T01:24:50.568Z,61.90
2023-03-04T01:27:17.281Z,62.44
2023-03-04T01:29:44.128Z,62.49
2023-03-04T01:32:10.951Z,62.49
2023-03-04T01:34:37.766Z,62.56
2023-03-04T01:37:04.793Z,62.43
2023-03-04T01:39:31.717Z,62.41
2023-03-04T01:41:58.869Z,63.13
2023-03-04T01:44:25.700Z,63.08
2023-03-04T01:46:54.992Z,63.15
2023-03-04T01:49:22.984Z,63.27
2023-03-04T01:51:52.907Z,63.12
2023-03-04T01:54:22.076Z,63.89
2023-03-04T01:56:51.561Z,63.48
2023-03-04T01:59:23.109Z,63.53
2023-03-04T02:01:53.968Z,63.74
2023-03-04T02:04:26.369Z,63.99
2023-03-04T02:06:53.367Z,63.92
2023-03-04T02:09:21.632Z,63.75
2023-03-04T02:11:50.398Z,64.61
2023-03-04T02:14:19.517Z,65.00
2023-03-04T02:16:46.936Z,65.42
2023-03-04T02:19:39.714Z,65.53
2023-03-04T02:22:06.872Z,65.57
2023-03-04T02:24:46.175Z,66.04
2023-03-04T02:27:13.162Z,66.24
2023-03-04T02:29:40.770Z,66.35
2023-03-04T02:32:12.429Z,66.48
2023-03-04T02:34:46.159Z,66.46
2023-03-04T02:37:13.901Z,66.37
2023-03-04T02:39:47.480Z,66.76
2023-03-04T02:42:14.454Z,66.50
2023-03-04T02:44:46.469Z,66.49
2023-03-04T02:47:17.957Z,65.72
2023-03-04T02:49:45.332Z,65.50
2023-03-04T02:52:19.703Z,65.00
2023-03-04T02:54:46.591Z,64.94
2023-03-04T02:57:15.060Z,64.51
2023-03-04T02:59:45.928Z,65.24
2023-03-04T03:02:17.670Z,65.34
2023-03-04T03:04:44.522Z,65.63
2023-03-04T03:07:13.966Z,65.12
2023-03-04T03:09:41.380Z,65.19
2023-03-04T03:12:08.088Z,64.53
2023-03-04T03:14:34.856Z,64.41
2023-03-04T03:17:03.776Z,64.34
2023-03-04T03:19:31.716Z,63.89
2023-03-04T03:22:00.099Z,63.71
2023-03-04T03:24:27.183Z,63.72
2023-03-04T03:26:54.019Z,63.29
2023-03-04T03:29:20.931Z,62.98
2023-03-04T03:31:47.740Z,63.01
2023-03-04T03:34:14.676Z,62.72
2023-03-04T03:36:41.858Z,62.94
2023-03-04T03:39:08.569Z,62.24
2023-03-04T03:41:35.278Z,61.71
2023-03-04T03:44:02.001Z,61.35
2023-03-04T03:46:29.905Z,62.14
2023-03-04T03:48:56.775Z,62.15
2023-03-04T03:51:23.533Z,62.24
2023-03-04T03:53:50.246Z,62.17
2023-03-04T03:56:16.982Z,61.72
2023-03-04T03:58:43.738Z,62.38
2023-03-04T04:01:10.572Z,62.39
2023-03-04T04:03:37.419Z,62.30
2023-03-04T04:06:04.241Z,62.25
2023-03-04T04:08:31.147Z,61.87
2023-03-04T04:10:57.892Z,61.64
2023-03-04T04:13:24.741Z,61.61
2023-03-04T04:15:52.381Z,62.05
2023-03-04T04:18:19.320Z,61.87
2023-03-04T04:20:46.728Z,62.42
2023-03-04T04:23:13.470Z,62.13
2023-03-04T04:25:40.280Z,62.17
2023-03-04T04:28:07.452Z,62.72
2023-03-04T04:30:34.630Z,62.73
2023-03-04T04:33:01.984Z,62.94
2023-03-04T04:35:28.869Z,62.98
2023-03-04T04:37:55.602Z,63.83
2023-03-04T04:40:22.406Z,63.67
2023-03-04T04:42:49.391Z,63.59
2023-03-04T04:45:17.114Z,63.56
2023-03-04T04:47:44.243Z,63.50
2023-03-04T04:50:11.704Z,63.79
2023-03-04T04:52:38.418Z,63.52
2023-03-04T04:55:05.564Z,63.53
2023-03-04T04:57:33.588Z,63.55
2023-03-04T05:00:00.372Z,63.68
2023-03-04T05:02:27.091Z,63.80
2023-03-04T05:04:53.829Z,63.67
2023-03-04T05:07:20.639Z,64.12
2023-03-04T05:09:47.404Z,64.24
2023-03-04T05:12:14.145Z,64.40
2023-03-04T05:14:40.934Z,64.61
2023-03-04T05:17:07.696Z,64.63
2023-03-04T05:19:34.411Z,64.60
2023-03-04T05:22:01.310Z,64.63
2023-03-04T05:24:28.061Z,64.20
2023-03-04T05:26:54.768Z,63.99
2023-03-04T05:29:21.691Z,63.84
2023-03-04T05:31:48.379Z,63.91
2023-03-04T05:34:15.214Z,64.24
2023-03-04T05:36:41.965Z,64.17
2023-03-04T05:39:08.810Z,64.28
2023-03-04T05:41:35.587Z,64.15
2023-03-04T05:44:02.484Z,64.09
2023-03-04T05:46:30.745Z,64.47
2023-03-04T05:48:59.112Z,64.48
2023-03-04T05:51:25.823Z,64.28
2023-03-04T05:53:52.543Z,64.24
2023-03-04T05:56:20.403Z,64.52
2023-03-04T05:58:47.643Z,64.37
2023-03-04T06:01:14.971Z,64.36
2023-03-04T06:03:43.514Z,64.71
2023-03-04T06:06:10.705Z,64.90
2023-03-04T06:08:37.568Z,64.72
2023-03-04T06:11:05.602Z,64.73
2023-03-04T06:13:34.827Z,64.33
2023-03-04T06:16:01.770Z,64.24
2023-03-04T06:18:29.128Z,64.17
2023-03-04T06:20:58.570Z,64.35
2023-03-04T06:23:26.295Z,64.51
2023-03-04T06:25:54.744Z,64.20
2023-03-04T06:28:21.786Z,64.20
2023-03-04T06:30:48.605Z,64.25
2023-03-04T06:33:15.296Z,64.29
2023-03-04T06:35:42.080Z,64.12
2023-03-04T06:38:08.927Z,64.15
2023-03-04T06:40:35.938Z,64.02
2023-03-04T06:43:02.658Z,63.82
2023-03-04T06:45:29.434Z,63.49
2023-03-04T06:47:56.263Z,63.48
2023-03-04T06:50:23.001Z,63.13
2023-03-04T06:52:50.075Z,62.78
2023-03-04T06:55:16.861Z,62.84
2023-03-04T06:57:43.648Z,62.83
2023-03-04T07:00:11.076Z,62.83
2023-03-04T07:02:37.865Z,62.88
2023-03-04T07:05:04.984Z,62.73
2023-03-04T07:07:31.721Z,62.62
2023-03-04T07:09:58.704Z,62.46
2023-03-04T07:12:31.627Z,61.94
2023-03-04T07:14:58.403Z,61.92
2023-03-04T07:17:25.148Z,61.76
2023-03-04T07:19:52.055Z,61.39
2023-03-04T07:22:18.859Z,60.62
2023-03-04T07:24:45.628Z,60.39
2023-03-04T07:27:12.573Z,60.31
2023-03-04T07:29:39.352Z,59.87
2023-03-04T07:32:10.421Z,59.92
2023-03-04T07:34:37.506Z,59.79
2023-03-04T07:37:04.293Z,59.52
2023-03-04T07:39:31.148Z,59.26
2023-03-04T07:41:58.019Z,59.38
2023-03-04T07:44:27.494Z,58.55
2023-03-04T07:46:54.272Z,58.25
2023-03-04T07:49:22.210Z,57.70
2023-03-04T07:51:49.040Z,57.59
2023-03-04T07:54:16.011Z,57.28
2023-03-04T07:56:43.368Z,57.19
2023-03-04T07:59:10.166Z,56.49
2023-03-04T08:01:37.857Z,56.52
2023-03-04T08:04:06.684Z,57.16
2023-03-04T08:06:33.824Z,57.12
2023-03-04T08:09:05.829Z,56.27
2023-03-04T08:11:33.968Z,56.03
2023-03-04T08:14:00.739Z,56.22
2023-03-04T08:16:27.920Z,55.07
2023-03-04T08:18:57.800Z,54.96
2023-03-04T08:21:26.629Z,54.62
2023-03-04T08:23:54.420Z,54.30
2023-03-04T08:26:30.352Z,53.97
2023-03-04T08:28:58.050Z,53.78
2023-03-04T08:31:25.087Z,54.14
2023-03-04T08:33:52.949Z,53.62
2023-03-04T08:36:20.718Z,53.06
2023-03-04T08:38:47.692Z,53.13
2023-03-04T08:41:15.495Z,52.49
2023-03-04T08:43:42.775Z,52.35
2023-03-04T08:46:09.538Z,52.11
2023-03-04T08:48:38.097Z,52.04
2023-03-04T08:51:10.030Z,52.96
2023-03-04T08:53:37.977Z,54.30
2023-03-04T08:56:05.569Z,52.29
2023-03-04T08:58:32.369Z,52.64
2023-03-04T09:01:01.030Z,52.95
2023-03-04T09:03:28.696Z,52.98
2023-03-04T09:05:56.010Z,52.56
2023-03-04T09:08:23.201Z,52.66
2023-03-04T09:10:53.107Z,52.42
2023-03-04T09:13:20.005Z,52.29
2023-03-04T09:15:49.172Z,52.14
2023-03-04T09:18:16.540Z,51.64
2023-03-04T09:20:44.297Z,51.22
2023-03-04T09:23:11.463Z,50.48
2023-03-04T09:25:38.985Z,50.64
2023-03-04T09:28:06.970Z,51.18
2023-03-04T09:30:35.180Z,50.37
2023-03-04T09:33:02.104Z,50.34
2023-03-04T09:35:32.571Z,50.13
2023-03-04T09:38:00.146Z,49.98
2023-03-04T09:40:48.949Z,49.82
2023-03-04T09:43:22.500Z,49.73
2023-03-04T09:45:55.733Z,49.55
2023-03-04T09:48:24.939Z,49.40
2023-03-04T09:50:59.530Z,49.35
2023-03-04T09:53:44.055Z,49.33
2023-03-04T09:56:12.156Z,48.22
2023-03-04T09:58:50.991Z,47.75
2023-03-04T10:01:25.529Z,46.34
2023-03-04T10:04:01.901Z,45.67
2023-03-04T10:06:31.256Z,45.08
2023-03-04T10:09:06.245Z,44.49
2023-03-04T10:11:44.606Z,43.90
2023-03-04T10:14:34.128Z,43.71
2023-03-04T10:17:10.202Z,43.92
2023-03-04T10:19:52.864Z,43.30
2023-03-04T10:22:22.718Z,42.89
2023-03-04T10:24:49.603Z,43.17
2023-03-04T10:27:20.003Z,42.71
2023-03-04T10:29:48.980Z,42.74
2023-03-04T10:32:19.045Z,43.01
2023-03-04T10:34:46.249Z,43.21
2023-03-04T10:37:13.205Z,43.20
2023-03-04T10:39:43.008Z,43.30
2023-03-04T10:42:15.984Z,43.16
2023-03-04T10:44:51.157Z,42.55
2023-03-04T10:47:17.991Z,42.03
2023-03-04T10:49:56.126Z,41.72
2023-03-04T10:52:46.264Z,41.25
2023-03-04T10:55:22.231Z,41.52
2023-03-04T10:57:55.688Z,41.37
2023-03-04T11:00:27.248Z,41.57
2023-03-04T11:03:27.945Z,40.99
2023-03-04T11:06:25.358Z,41.27
2023-03-04T11:08:59.347Z,41.31
2023-03-04T11:11:31.209Z,41.30
2023-03-04T11:14:08.632Z,41.14
2023-03-04T11:16:35.525Z,40.91
2023-03-04T11:19:16.705Z,41.23
2023-03-04T11:21:44.270Z,41.31
2023-03-04T11:24:27.777Z,41.20
2023-03-04T11:27:03.880Z,42.92
2023-03-04T11:29:42.238Z,40.21
2023-03-04T11:32:39.840Z,39.98
2023-03-04T11:35:28.148Z,40.03
2023-03-04T11:38:17.592Z,40.36
2023-03-04T11:40:57.923Z,40.06
2023-03-04T11:43:42.737Z,40.32
2023-03-04T11:46:25.815Z,39.99
2023-03-04T11:50:00.306Z,39.94
2023-03-04T11:52:42.011Z,39.81
2023-03-04T11:55:18.414Z,39.86
2023-03-04T11:57:57.738Z,40.33
2023-03-04T12:00:58.849Z,40.01
2023-03-04T12:03:57.430Z,39.27
2023-03-04T12:06:53.987Z,39.50
2023-03-04T12:09:35.617Z,39.08
2023-03-04T12:12:20.938Z,46.42
2023-03-04T12:15:16.856Z,45.44
2023-03-04T12:17:58.714Z,45.79
2023-03-04T12:20:53.190Z,44.80
2023-03-04T12:23:38.386Z,45.15
2023-03-04T12:26:40.872Z,45.61
2023-03-04T12:29:27.804Z,45.33
2023-03-04T12:32:00.650Z,45.70
2023-03-04T12:34:39.006Z,45.65
2023-03-04T12:37:30.481Z,46.07
2023-03-04T12:40:06.896Z,46.37
2023-03-04T12:42:54.522Z,46.76
2023-03-04T12:45:42.196Z,46.99
2023-03-04T12:48:33.459Z,46.43
2023-03-04T12:51:55.704Z,46.33
2023-03-04T12:54:37.309Z,46.79
2023-03-04T12:57:06.876Z,46.31
2023-03-04T12:59:43.144Z,46.69
2023-03-04T13:02:34.813Z,46.53
2023-03-04T13:05:25.326Z,46.61
2023-03-04T13:08:19.582Z,46.81
2023-03-04T13:10:46.458Z,47.19
2023-03-04T13:13:37.209Z,46.71
2023-03-04T13:16:40.809Z,46.16
2023-03-04T13:19:45.374Z,45.36
2023-03-04T13:22:33.672Z,45.38
2023-03-04T13:25:22.052Z,45.12
2023-03-04T13:27:51.899Z,44.50
2023-03-04T13:30:34.540Z,44.90
2023-03-04T13:33:13.653Z,45.54
2023-03-04T13:35:49.500Z,46.23
2023-03-04T13:38:29.006Z,46.02
2023-03-04T13:41:21.850Z,45.44
2023-03-04T13:43:55.730Z,44.73
2023-03-04T13:46:27.470Z,44.54
2023-03-04T13:49:01.385Z,44.38
2023-03-04T13:51:41.310Z,44.88
2023-03-04T13:54:13.715Z,45.35
2023-03-04T13:56:40.988Z,44.72
2023-03-04T13:59:07.671Z,45.33
2023-03-04T14:01:55.860Z,45.38
2023-03-04T14:04:22.820Z,45.63
2023-03-04T14:06:51.559Z,45.04
2023-03-04T14:09:21.122Z,45.03
2023-03-04T14:11:49.341Z,44.79
2023-03-04T14:14:20.831Z,44.67
2023-03-04T14:16:50.293Z,45.21
2023-03-04T14:19:29.570Z,45.14
2023-03-04T14:21:57.496Z,45.92
2023-03-04T14:24:24.878Z,46.08
2023-03-04T14:27:13.455Z,46.30
2023-03-04T14:29:40.804Z,45.31
2023-03-04T14:32:08.098Z,45.75
2023-03-04T14:34:38.351Z,46.03
2023-03-04T14:37:31.393Z,46.62
2023-03-04T14:40:00.773Z,46.73
2023-03-04T14:42:39.470Z,46.10
2023-03-04T14:45:07.312Z,46.00
2023-03-04T14:47:46.145Z,46.83
2023-03-04T14:50:17.096Z,46.65
2023-03-04T14:53:04.306Z,46.57
2023-03-04T14:55:31.164Z,46.92
2023-03-04T14:58:10.104Z,46.66
2023-03-04T15:00:41.024Z,46.94
2023-03-04T15:03:19.317Z,47.39
2023-03-04T15:05:48.632Z,47.00
2023-03-04T15:08:52.157Z,46.91
2023-03-04T15:11:26.114Z,46.46
2023-03-04T15:13:58.056Z,46.41
2023-03-04T15:16:28.224Z,45.82
2023-03-04T15:19:02.204Z,45.66
2023-03-04T15:21:34.775Z,45.48
2023-03-04T15:24:03.710Z,45.31
2023-03-04T15:26:37.564Z,45.40
2023-03-04T15:29:13.899Z,45.33
2023-03-04T15:31:42.102Z,45.35
2023-03-04T15:34:14.046Z,45.32
2023-03-04T15:36:41.134Z,45.33
2023-03-04T15:39:12.661Z,45.11
2023-03-04T15:41:39.546Z,45.53
2023-03-04T15:44:06.714Z,45.48
2023-03-04T15:46:33.802Z,45.62
2023-03-04T15:49:00.715Z,46.15
2023-03-04T15:51:27.929Z,45.54
2023-03-04T15:53:57.595Z,46.03
2023-03-04T15:56:31.684Z,46.85
2023-03-04T15:59:11.812Z,46.87
2023-03-04T16:01:40.381Z,47.28
2023-03-04T16:04:15.334Z,47.91
2023-03-04T16:06:44.582Z,47.60
2023-03-04T16:09:14.859Z,48.00
2023-03-04T16:11:45.602Z,47.55
2023-03-04T16:14:14.441Z,47.65
2023-03-04T16:16:43.840Z,47.51
2023-03-04T16:19:10.660Z,47.49
2023-03-04T16:21:37.533Z,47.58
2023-03-04T16:24:05.098Z,47.30
2023-03-04T16:26:33.410Z,47.34
2023-03-04T16:29:00.537Z,47.32
2023-03-04T16:31:27.362Z,47.34
2023-03-04T16:33:54.200Z,45.49
2023-03-04T16:36:27.425Z,45.62
2023-03-04T16:39:02.550Z,44.71
2023-03-04T16:41:33.224Z,44.46
2023-03-04T16:44:00.877Z,44.29
2023-03-04T16:46:28.077Z,44.68
2023-03-04T16:48:55.198Z,44.66
2023-03-04T16:51:23.259Z,44.37
2023-03-04T16:54:00.289Z,44.53
2023-03-04T16:56:27.433Z,44.76
2023-03-04T16:58:54.490Z,45.02
2023-03-04T17:01:26.853Z,45.31
2023-03-04T17:03:54.970Z,45.36
2023-03-04T17:06:23.351Z,45.59
2023-03-04T17:08:51.067Z,45.54
2023-03-04T17:11:20.820Z,45.77
2023-03-04T17:13:48.016Z,46.09
2023-03-04T17:16:15.561Z,46.42
2023-03-04T17:18:42.925Z,46.46
2023-03-04T17:21:13.727Z,46.74
2023-03-04T17:23:40.626Z,47.23
2023-03-04T17:26:07.673Z,47.35
2023-03-04T17:28:34.427Z,47.45
2023-03-04T17:31:01.713Z,47.54
2023-03-04T17:33:28.458Z,47.58
2023-03-04T17:35:56.879Z,48.13
2023-03-04T17:38:23.683Z,48.69
2023-03-04T17:40:50.490Z,49.04
2023-03-04T17:43:17.253Z,49.33
2023-03-04T17:45:44.468Z,49.32
2023-03-04T17:48:15.426Z,49.42
2023-03-04T17:50:52.098Z,49.44
2023-03-04T17:53:20.150Z,49.57
2023-03-04T17:55:50.969Z,49.96
2023-03-04T17:58:17.778Z,49.94
2023-03-04T18:00:44.736Z,49.98
2023-03-04T18:03:15.093Z,50.17
2023-03-04T18:08:42.662Z,50.63
2023-03-04T18:11:10.381Z,50.51
2023-03-04T18:13:41.960Z,50.58
2023-03-04T18:16:09.334Z,50.59
2023-03-04T18:18:36.736Z,50.57
2023-03-04T18:21:04.712Z,50.54
2023-03-04T18:23:32.443Z,50.74
2023-03-04T18:25:59.230Z,50.85
2023-03-04T18:28:26.177Z,50.93
2023-03-04T18:30:55.043Z,51.51
2023-03-04T18:33:21.989Z,51.62
2023-03-04T18:35:49.109Z,51.68
2023-03-04T18:38:16.289Z,51.88
2023-03-04T18:40:44.318Z,52.06
2023-03-04T18:43:11.140Z,52.42
2023-03-04T18:45:37.983Z,53.00
2023-03-04T18:48:05.380Z,53.12
2023-03-04T18:50:32.161Z,53.59
2023-03-04T18:52:58.946Z,53.86
2023-03-04T18:55:27.615Z,54.12
2023-03-04T18:57:57.892Z,54.20
2023-03-04T19:00:25.444Z,54.39
2023-03-04T19:02:58.778Z,54.60
2023-03-04T19:05:30.069Z,54.61
2023-03-04T19:07:57.595Z,54.58
2023-03-04T19:10:25.509Z,54.60
2023-03-04T19:12:52.818Z,54.48
2023-03-04T19:15:20.185Z,54.52
2023-03-04T19:17:46.935Z,54.34
2023-03-04T19:20:15.180Z,54.49
2023-03-04T19:22:45.433Z,54.54
2023-03-04T19:25:12.985Z,54.81
2023-03-04T19:27:41.108Z,54.52
2023-03-04T19:30:08.787Z,54.52
2023-03-04T19:32:36.279Z,54.45
2023-03-04T19:35:03.117Z,54.30
2023-03-04T19:37:30.125Z,54.63
2023-03-04T19:39:56.956Z,54.91
2023-03-04T19:42:24.332Z,55.10
2023-03-04T19:44:51.593Z,55.10
2023-03-04T19:47:18.517Z,55.14
2023-03-04T19:49:45.474Z,55.38
2023-03-04T19:52:12.335Z,55.51
2023-03-04T19:54:39.125Z,55.18
2023-03-04T19:57:05.910Z,55.46
2023-03-04T19:59:32.706Z,55.26
2023-03-04T20:02:01.291Z,55.35
2023-03-04T20:04:28.426Z,55.36
2023-03-04T20:06:55.438Z,55.55
2023-03-04T20:09:22.762Z,55.37
2023-03-04T20:11:59.097Z,55.58
2023-03-04T20:14:31.944Z,55.93
2023-03-04T20:17:03.549Z,56.05
2023-03-04T20:19:31.881Z,56.24
2023-03-04T20:21:58.637Z,56.43
2023-03-04T20:24:26.283Z,56.85
2023-03-04T20:26:53.424Z,56.71
2023-03-04T20:29:20.227Z,56.99
2023-03-04T20:31:47.114Z,57.14
2023-03-04T20:34:17.538Z,57.20
2023-03-04T20:36:44.435Z,57.17
2023-03-04T20:39:25.846Z,56.91
2023-03-04T20:41:55.124Z,57.13
2023-03-04T20:44:21.944Z,57.41
2023-03-04T20:46:48.765Z,57.49
2023-03-04T20:49:24.512Z,57.25
2023-03-04T20:51:52.588Z,58.02
2023-03-04T20:54:19.902Z,57.83
2023-03-04T20:56:48.671Z,58.13
2023-03-04T20:59:16.137Z,58.07
2023-03-04T21:01:44.799Z,57.89
2023-03-04T21:04:11.781Z,57.73
2023-03-04T21:06:39.554Z,57.24
2023-03-04T21:09:13.114Z,57.12
2023-03-04T21:11:41.320Z,56.98
2023-03-04T21:14:22.104Z,57.25
2023-03-04T21:16:51.226Z,57.21
2023-03-04T21:19:20.755Z,57.35
2023-03-04T21:21:49.660Z,57.44
2023-03-04T21:24:19.440Z,57.09
2023-03-04T21:26:47.788Z,57.23
2023-03-04T21:29:16.744Z,57.19
2023-03-04T21:31:50.223Z,57.15
2023-03-04T21:34:24.366Z,58.17
2023-03-04T21:36:51.785Z,57.81
2023-03-04T21:39:21.573Z,57.73
2023-03-04T21:41:48.902Z,58.28
2023-03-04T21:44:27.961Z,58.26
2023-03-04T21:47:00.769Z,58.39
2023-03-04T21:49:27.869Z,58.34
2023-03-04T21:51:54.711Z,58.50
2023-03-04T21:54:22.183Z,58.77
2023-03-04T21:56:50.293Z,58.64
2023-03-04T21:59:20.088Z,58.60
2023-03-04T22:01:47.170Z,58.60
2023-03-04T22:04:14.029Z,58.62
2023-03-04T22:06:41.486Z,58.85
2023-03-04T22:09:08.467Z,59.05
2023-03-04T22:11:35.248Z,59.02
2023-03-04T22:14:03.069Z,58.81
2023-03-04T22:16:35.404Z,58.84
2023-03-04T22:19:04.849Z,58.96
2023-03-04T22:21:31.610Z,58.98
2023-03-04T22:23:58.438Z,59.25
2023-03-04T22:26:31.582Z,59.29
2023-03-04T22:29:01.989Z,58.89
2023-03-04T22:31:34.651Z,59.46
2023-03-04T22:34:07.055Z,59.32
2023-03-04T22:36:49.567Z,59.51
2023-03-04T22:39:29.602Z,59.11
2023-03-04T22:42:18.479Z,59.71
2023-03-04T22:45:01.577Z,59.64
2023-03-04T22:48:06.510Z,59.89
2023-03-04T22:50:46.595Z,60.12
2023-03-04T22:53:33.508Z,60.30
2023-03-04T22:56:15.637Z,60.05
2023-03-04T22:59:02.491Z,60.01
2023-03-04T23:01:43.712Z,59.66
2023-03-04T23:04:30.435Z,59.64
2023-03-04T23:07:10.548Z,59.63
2023-03-04T23:10:04.448Z,59.78
2023-03-04T23:12:51.578Z,59.53
2023-03-04T23:15:31.514Z,59.60
2023-03-04T23:18:20.576Z,59.68
2023-03-04T23:21:00.559Z,60.20
2023-03-04T23:23:47.585Z,60.79
2023-03-04T23:26:32.460Z,60.89
2023-03-04T23:29:21.580Z,61.18
2023-03-04T23:32:01.499Z,61.51
2023-03-04T23:34:53.229Z,61.47
2023-03-04T23:37:32.484Z,61.31
2023-03-04T23:40:19.568Z,61.27
2023-03-04T23:43:02.503Z,61.41
2023-03-04T23:45:50.652Z,61.70
2023-03-04T23:48:30.428Z,62.16
2023-03-04T23:51:19.606Z,61.79
2023-03-04T23:53:59.491Z,61.41
2023-03-04T23:56:46.546Z,61.23
2023-03-04T23:59:26.437Z,61.51
